Time;durP1;ratioP1;P1;durP2;ratioP2;P2;SDS_P1;SDS_P2;PMS_P1;PMS_P2;Temp;Humidity;BMP_temperature;BMP_pressure;BME280_temperature;BME280_humidity;BME280_pressure;Samples;Min_cycle;Max_cycle;Signal;HPM_P1;HPM_P2
2022/10/19 00:01:18;;;;;;;20.13;13.93;;;10.20;99.90;;;-141.84;96.16;17229.53;5090526;28;20280;-67
2022/10/19 00:03:51;;;;;;;17.90;12.33;;;10.20;99.90;;;-141.84;96.51;17225.47;5090781;28;20224;-66
2022/10/19 00:06:24;;;;;;;18.23;12.77;;;10.10;99.90;;;-141.84;96.70;17268.13;5090312;28;20228;-67
2022/10/19 00:08:53;;;;;;;23.03;12.53;;;10.10;99.90;;;-141.84;96.88;17229.53;5090758;28;20243;-66
2022/10/19 00:11:22;;;;;;;16.17;11.87;;;10.10;99.90;;;-141.84;97.08;17274.22;5090547;28;20253;-63
2022/10/19 00:13:50;;;;;;;16.67;11.30;;;10.00;99.90;;;-141.84;97.55;17284.38;5090913;28;20596;-65
2022/10/19 00:16:19;;;;;;;17.33;11.70;;;10.00;99.90;;;-141.84;97.49;17221.41;5090355;28;20593;-65
2022/10/19 00:18:48;;;;;;;16.10;11.40;;;10.10;99.90;;;-141.84;97.38;17257.97;5090341;28;20909;-66
2022/10/19 00:21:19;;;;;;;16.77;11.93;;;10.00;99.90;;;-141.84;97.54;17251.88;5090273;28;20373;-66
2022/10/19 00:23:48;;;;;;;20.57;12.10;;;10.00;99.90;;;-141.84;97.51;17211.25;5090344;28;20228;-67
2022/10/19 00:26:17;;;;;;;19.20;11.93;;;10.00;99.90;;;-141.84;97.61;17223.44;5090474;28;20667;-67
2022/10/19 00:28:45;;;;;;;17.27;11.87;;;9.90;99.90;;;-141.84;97.71;17243.75;5090192;28;20643;-66
2022/10/19 00:31:17;;;;;;;19.90;13.00;;;9.80;99.90;;;-141.84;97.82;17268.13;5090705;28;20299;-66
2022/10/19 00:33:46;;;;;;;19.07;14.43;;;9.90;99.90;;;-141.84;97.67;17207.19;5094524;28;20333;-67
2022/10/19 00:36:23;;;;;;;21.10;15.67;;;9.90;99.90;;;-141.84;97.62;17257.97;5094385;28;20643;-66
2022/10/19 00:38:52;;;;;;;18.77;13.90;;;9.80;99.90;;;-141.84;97.76;17227.50;5094586;28;20223;-66
2022/10/19 00:41:23;;;;;;;18.90;13.03;;;9.80;99.90;;;-141.84;97.93;17186.88;5094879;28;20204;-65
2022/10/19 00:43:55;;;;;;;20.30;13.17;;;9.80;99.90;;;-141.84;98.11;17241.72;5094401;28;20223;-67
2022/10/19 00:46:24;;;;;;;20.67;16.77;;;9.80;99.90;;;-141.84;98.03;17231.56;5094155;28;20231;-66
2022/10/19 00:48:57;;;;;;;25.57;15.80;;;9.80;99.90;;;-141.84;97.98;17233.59;5094204;28;20223;-67
2022/10/19 00:51:32;;;;;;;21.33;14.70;;;9.80;99.90;;;-141.84;98.00;17213.28;5094114;28;20227;-67
2022/10/19 00:54:03;;;;;;;22.37;15.67;;;9.70;99.90;;;-141.84;98.04;17231.56;5094032;28;20224;-65
2022/10/19 00:56:33;;;;;;;23.00;15.63;;;9.70;99.90;;;-141.84;98.25;17241.72;5094285;28;20188;-67
2022/10/19 00:59:04;;;;;;;22.13;15.30;;;9.70;99.90;;;-141.84;98.46;17229.53;5094308;28;20197;-67
2022/10/19 01:01:34;;;;;;;20.03;14.60;;;9.70;99.90;;;-141.84;98.21;17235.63;5093770;28;20224;-67
2022/10/19 01:04:04;;;;;;;16.90;12.30;;;9.70;99.90;;;-141.84;98.05;17211.25;5093583;28;20231;-67
2022/10/19 01:06:33;;;;;;;17.97;12.50;;;9.70;99.90;;;-141.84;98.30;17227.50;5093667;28;20288;-67
2022/10/19 01:09:02;;;;;;;17.00;11.93;;;9.60;99.90;;;-141.84;98.32;17205.16;5093630;28;20216;-65
2022/10/19 01:11:43;;;;;;;15.73;11.47;;;9.60;99.90;;;-141.84;98.50;17203.13;5093848;28;20207;-66
2022/10/19 01:14:31;;;;;;;17.23;11.57;;;9.60;99.90;;;-141.84;98.66;17188.91;5094033;28;20188;-67
2022/10/19 01:17:12;;;;;;;17.50;11.00;;;9.60;99.90;;;-141.84;98.80;17227.50;5093966;28;20511;-67
2022/10/19 01:20:32;;;;;;;16.63;11.07;;;9.60;99.90;;;-141.84;98.67;17203.13;5093234;28;20231;-66
2022/10/19 01:23:39;;;;;;;16.77;11.53;;;9.70;99.90;;;-141.84;98.76;17201.09;5093294;28;20240;-66
2022/10/19 01:26:31;;;;;;;17.47;11.83;;;9.80;99.90;;;-141.84;98.84;17215.31;5093429;28;20584;-67
2022/10/19 01:29:17;;;;;;;16.03;11.50;;;9.90;99.90;;;-141.84;98.48;17241.72;5093334;28;20223;-66
2022/10/19 01:31:58;;;;;;;20.37;12.07;;;10.00;99.90;;;-141.84;98.71;17223.44;5093177;28;20228;-66
2022/10/19 01:34:35;;;;;;;16.83;12.17;;;10.00;99.90;;;-141.84;98.73;17249.84;5092947;28;20722;-67
2022/10/19 01:37:17;;;;;;;16.27;11.70;;;10.10;99.90;;;-141.84;98.02;17205.16;5093916;28;20730;-66
2022/10/19 01:39:53;;;;;;;18.27;11.63;;;10.10;99.90;;;-141.84;97.51;17241.72;5093725;28;20235;-66
2022/10/19 01:42:31;;;;;;;13.43;10.30;;;10.10;99.90;;;-141.84;97.37;17245.78;5092941;28;20285;-66
2022/10/19 01:45:09;;;;;;;15.20;10.97;;;10.10;99.90;;;-141.84;97.60;17233.59;5092570;28;20230;-67
2022/10/19 01:47:47;;;;;;;14.63;10.50;;;10.00;99.90;;;-141.84;97.28;17253.91;5093175;28;20184;-67
2022/10/19 01:50:24;;;;;;;17.27;10.40;;;10.10;99.90;;;-141.84;97.39;17231.56;5093615;28;20554;-67
2022/10/19 01:52:55;;;;;;;15.53;10.67;;;10.10;99.90;;;-141.84;97.43;17227.50;5093094;28;20319;-66
2022/10/19 01:55:27;;;;;;;13.70;10.27;;;10.20;99.90;;;-141.84;97.68;17239.69;5110372;28;20242;-66
2022/10/19 01:58:02;;;;;;;18.87;11.17;;;10.20;99.90;;;-141.84;97.87;17233.59;5113044;28;20231;-66
2022/10/19 02:00:39;;;;;;;15.10;10.40;;;10.20;99.90;;;-141.84;97.60;17251.88;5113539;28;20227;-66
2022/10/19 02:03:10;;;;;;;14.70;9.57;;;10.20;99.90;;;-141.84;97.71;17249.84;5113240;28;20226;-67
2022/10/19 02:05:41;;;;;;;16.33;10.20;;;10.30;99.90;;;-141.84;97.43;17264.06;5113186;28;20186;-67
2022/10/19 02:08:17;;;;;;;15.87;9.80;;;10.30;99.90;;;-141.84;97.07;17245.78;5113656;28;20188;-66
2022/10/19 02:10:47;;;;;;;14.53;9.43;;;10.40;99.90;;;-141.84;96.55;17217.34;5112974;28;20226;-68
2022/10/19 02:13:16;;;;;;;12.00;8.67;;;10.30;99.90;;;-141.84;96.70;17241.72;5112650;28;20231;-67
2022/10/19 02:15:50;;;;;;;12.27;9.17;;;10.30;99.90;;;-141.84;96.69;17260.00;5112981;28;20231;-68
2022/10/19 02:18:26;;;;;;;12.50;9.37;;;10.30;99.90;;;-141.84;96.78;17260.00;5112702;28;20288;-66
2022/10/19 02:20:55;;;;;;;12.97;9.47;;;10.30;99.90;;;-141.84;96.38;17182.81;5113012;28;20238;-67
2022/10/19 02:23:26;;;;;;;16.77;10.37;;;10.30;99.90;;;-141.84;96.05;17237.66;5111913;28;20617;-69
2022/10/19 02:25:56;;;;;;;16.13;9.97;;;10.30;99.90;;;-141.84;95.58;17233.59;5093249;28;20218;-66
2022/10/19 02:28:26;;;;;;;12.60;8.93;;;10.30;99.90;;;-141.84;95.20;17241.72;5091952;28;20239;-66
2022/10/19 02:30:54;;;;;;;10.60;8.43;;;10.50;99.90;;;-141.84;95.00;17278.28;5092078;28;20239;-67
2022/10/19 02:33:24;;;;;;;13.70;9.00;;;10.20;99.90;;;-141.84;94.80;17266.09;5092070;28;20228;-66
2022/10/19 02:35:52;;;;;;;15.07;9.37;;;10.10;99.90;;;-141.84;94.47;17298.59;5092197;28;20238;-66
2022/10/19 02:38:24;;;;;;;13.70;9.40;;;10.10;99.90;;;-141.84;94.21;17247.81;5092569;28;20207;-66
2022/10/19 02:41:02;;;;;;;12.77;8.40;;;10.00;99.90;;;-141.84;94.06;17247.81;5092314;28;20602;-68
2022/10/19 02:43:36;;;;;;;12.63;8.60;;;10.00;99.90;;;-141.84;93.73;17274.22;5091955;28;20596;-68
2022/10/19 02:46:10;;;;;;;14.57;8.87;;;9.90;99.90;;;-141.84;93.40;17264.06;5092172;28;20224;-66
2022/10/19 02:48:42;;;;;;;17.67;12.97;;;9.90;99.90;;;-141.84;93.47;17257.97;5092072;28;20280;-66
2022/10/19 02:51:30;;;;;;;21.37;19.07;;;9.80;99.90;;;-141.84;93.41;17241.72;5092016;28;20220;-67
2022/10/19 02:53:58;;;;;;;28.10;22.67;;;9.70;99.90;;;-141.84;93.65;17221.41;5091256;28;20223;-65
2022/10/19 02:56:31;;;;;;;28.80;23.13;;;9.70;99.90;;;-141.84;93.34;17241.72;5091680;28;20204;-67
2022/10/19 02:58:59;;;;;;;20.17;16.70;;;9.60;99.90;;;-141.84;93.49;17264.06;5091880;28;20210;-68
2022/10/19 03:01:28;;;;;;;17.93;13.33;;;9.50;99.90;;;-141.84;94.10;17235.63;5091459;28;20285;-69
2022/10/19 03:03:57;;;;;;;15.80;11.60;;;9.50;99.90;;;-141.84;94.72;17249.84;5091426;28;20281;-67
2022/10/19 03:06:25;;;;;;;16.03;10.73;;;9.50;99.90;;;-141.84;94.93;17276.25;5091466;28;20235;-66
2022/10/19 03:08:53;;;;;;;13.30;9.50;;;9.50;99.90;;;-141.84;95.28;17276.25;5091287;28;20734;-67
2022/10/19 03:11:21;;;;;;;15.33;11.97;;;9.50;99.90;;;-141.84;95.46;17253.91;5091225;28;20715;-67
2022/10/19 03:13:49;;;;;;;17.87;12.57;;;9.50;99.90;;;-141.84;95.56;17270.16;5091966;28;20200;-66
2022/10/19 03:16:17;;;;;;;17.47;12.40;;;9.50;99.90;;;-141.84;95.76;17286.41;5091220;28;20232;-67
2022/10/19 03:18:47;;;;;;;15.13;11.30;;;9.50;99.90;;;-141.84;95.38;17266.09;5091156;28;20710;-69
2022/10/19 03:21:18;;;;;;;15.00;9.77;;;9.60;99.90;;;-141.84;95.19;17253.91;5091120;28;20239;-67
2022/10/19 03:23:46;;;;;;;17.23;9.93;;;9.50;99.90;;;-141.84;95.21;17243.75;5090958;28;20227;-66
2022/10/19 03:26:17;;;;;;;12.53;10.00;;;9.60;99.90;;;-141.84;94.90;17278.28;5091392;28;20208;-65
2022/10/19 03:28:45;;;;;;;14.63;9.50;;;9.60;99.90;;;-141.84;94.92;17223.44;5090964;28;20812;-66
2022/10/19 03:31:13;;;;;;;13.50;9.17;;;9.50;99.90;;;-141.84;95.12;17237.66;5090859;28;20545;-67
2022/10/19 03:33:41;;;;;;;13.77;9.10;;;9.50;99.90;;;-141.84;95.19;17219.38;5091084;28;20223;-66
2022/10/19 03:36:24;;;;;;;13.23;8.73;;;9.50;99.90;;;-141.84;95.42;17255.94;5090789;28;20226;-67
2022/10/19 03:38:53;;;;;;;11.67;8.00;;;9.40;99.90;;;-141.84;95.56;17262.03;5091072;28;20219;-66
2022/10/19 03:41:23;;;;;;;13.03;8.63;;;9.50;99.90;;;-141.84;95.47;17260.00;5090977;28;20192;-66
2022/10/19 03:43:52;;;;;;;15.10;9.10;;;9.40;99.90;;;-141.84;95.56;17239.69;5091141;28;20729;-66
2022/10/19 03:46:21;;;;;;;13.33;9.17;;;9.40;99.90;;;-141.84;95.94;17272.19;5090711;28;20731;-67
2022/10/19 03:48:50;;;;;;;15.37;9.17;;;9.40;99.90;;;-141.84;95.96;17213.28;5090948;28;20222;-66
2022/10/19 03:51:22;;;;;;;16.27;8.40;;;9.40;99.90;;;-141.84;95.99;17223.44;5090694;28;20285;-67
2022/10/19 03:53:53;;;;;;;12.07;8.47;;;9.30;99.90;;;-141.84;95.77;17227.50;5090929;28;20232;-67
2022/10/19 03:56:25;;;;;;;13.50;9.00;;;9.40;99.90;;;-141.84;95.81;17221.41;5090958;28;20208;-65
2022/10/19 03:58:55;;;;;;;13.80;9.33;;;9.30;99.90;;;-141.84;95.32;17243.75;5090897;28;20581;-66
2022/10/19 04:01:27;;;;;;;15.83;9.20;;;9.30;99.90;;;-141.84;94.88;17207.19;5090499;28;20224;-66
2022/10/19 04:03:56;;;;;;;12.97;8.37;;;9.30;99.90;;;-141.84;94.74;17215.31;5090767;28;20238;-66
2022/10/19 04:06:28;;;;;;;13.87;8.30;;;9.20;99.90;;;-141.84;95.13;17203.13;5089634;28;20223;-67
2022/10/19 04:08:57;;;;;;;14.37;9.30;;;9.10;99.90;;;-141.84;95.25;17217.34;5090628;28;20238;-65
2022/10/19 04:11:29;;;;;;;13.90;10.10;;;9.10;99.90;;;-141.84;95.44;17221.41;5090629;28;20517;-65
2022/10/19 04:13:58;;;;;;;14.13;9.40;;;9.10;99.90;;;-141.84;95.32;17221.41;5090830;28;20659;-66
2022/10/19 04:16:30;;;;;;;13.40;9.43;;;9.10;99.90;;;-141.84;95.32;17197.03;5090407;28;20224;-66
2022/10/19 04:18:59;;;;;;;11.63;9.20;;;9.10;99.90;;;-141.84;95.43;17245.78;5090505;28;20750;-61
2022/10/19 04:21:31;;;;;;;16.57;10.23;;;9.10;99.90;;;-141.84;95.25;17209.22;5090338;28;20227;-59
2022/10/19 04:24:04;;;;;;;12.67;9.63;;;9.10;99.90;;;-141.84;94.85;17223.44;5090698;28;20223;-60
2022/10/19 04:26:32;;;;;;;15.93;9.50;;;9.10;99.90;;;-141.84;95.13;17192.97;5090138;28;20214;-61
2022/10/19 04:29:01;;;;;;;11.93;9.13;;;9.10;99.90;;;-141.84;95.18;17209.22;5090872;28;20505;-60
2022/10/19 04:31:29;;;;;;;11.70;8.23;;;9.10;99.90;;;-141.84;95.29;17186.88;5090279;28;20714;-61
2022/10/19 04:33:58;;;;;;;12.93;9.30;;;9.00;99.90;;;-141.84;95.58;17192.97;5090362;28;20723;-60
2022/10/19 04:36:27;;;;;;;15.80;9.00;;;9.00;99.90;;;-141.84;95.51;17186.88;5090102;28;20228;-60
2022/10/19 04:38:55;;;;;;;11.47;8.10;;;9.00;99.90;;;-141.84;95.67;17253.91;5090123;28;20710;-61
2022/10/19 04:41:24;;;;;;;12.93;8.97;;;9.00;99.90;;;-141.84;94.85;17245.78;5090220;28;20204;-60
2022/10/19 04:43:57;;;;;;;13.97;8.90;;;9.10;99.90;;;-141.84;94.07;17211.25;5090848;28;20257;-61
2022/10/19 04:46:27;;;;;;;15.10;8.30;;;9.00;99.90;;;-141.84;93.96;17188.91;5089928;28;20236;-59
2022/10/19 04:48:56;;;;;;;13.10;8.00;;;9.10;99.90;;;-141.84;93.81;17195.00;5090133;28;20722;-60
2022/10/19 04:51:25;;;;;;;16.37;8.13;;;9.00;99.90;;;-141.84;93.29;17237.66;5089909;28;20706;-60
2022/10/19 04:53:57;;;;;;;15.80;7.90;;;9.00;99.90;;;-141.84;93.01;17207.19;5090105;28;20228;-60
2022/10/19 04:56:28;;;;;;;12.93;7.50;;;9.10;99.90;;;-141.84;92.85;17209.22;5090112;28;20646;-61
2022/10/19 04:58:58;;;;;;;10.87;7.23;;;9.00;99.90;;;-141.84;92.99;17201.09;5090581;28;20214;-60
2022/10/19 05:01:28;;;;;;;10.97;8.47;;;9.00;99.90;;;-141.84;92.79;17164.53;5089845;28;20236;-61
2022/10/19 05:03:59;;;;;;;11.43;7.27;;;9.00;99.90;;;-141.84;93.16;17219.38;5090053;28;20224;-60
2022/10/19 05:06:28;;;;;;;11.70;7.70;;;8.90;99.90;;;-141.84;93.54;17184.84;5089696;28;20254;-60
2022/10/19 05:08:58;;;;;;;10.67;7.43;;;8.90;99.90;;;-141.84;93.32;17229.53;5090108;28;20301;-61
2022/10/19 05:11:26;;;;;;;11.27;8.07;;;8.80;99.90;;;-141.84;93.51;17180.78;5089725;28;20208;-61
2022/10/19 05:13:56;;;;;;;17.57;8.23;;;8.80;99.90;;;-141.84;93.54;17225.47;5090050;28;20618;-61
2022/10/19 05:16:25;;;;;;;13.90;8.50;;;8.90;99.90;;;-141.84;93.59;17140.19;5089533;28;20683;-61
2022/10/19 05:18:57;;;;;;;12.13;7.13;;;8.80;99.90;;;-141.84;94.05;17221.41;5092676;28;20253;-60
2022/10/19 05:21:28;;;;;;;11.70;7.73;;;8.80;99.90;;;-141.84;94.51;17172.66;5093144;28;20220;-60
2022/10/19 05:23:58;;;;;;;14.13;8.70;;;8.80;99.90;;;-141.84;94.72;17205.16;5093564;28;20768;-59
2022/10/19 05:26:29;;;;;;;13.07;7.73;;;8.90;99.90;;;-141.84;94.71;17221.41;5093010;28;20760;-62
2022/10/19 05:29:00;;;;;;;13.27;8.87;;;9.00;99.90;;;-141.84;94.58;17253.91;5093649;28;20189;-62
2022/10/19 05:31:31;;;;;;;16.27;8.90;;;9.10;99.90;;;-141.84;94.96;17231.56;5092834;28;20232;-61
2022/10/19 05:34:00;;;;;;;15.20;8.40;;;9.20;99.90;;;-141.84;95.15;17192.97;5093207;28;20734;-60
2022/10/19 05:36:33;;;;;;;12.90;7.70;;;9.20;99.90;;;-141.84;95.00;17209.22;5092915;28;20231;-59
2022/10/19 05:39:06;;;;;;;12.70;7.60;;;9.30;99.90;;;-141.84;94.49;17225.47;5093004;28;20700;-60
2022/10/19 05:41:34;;;;;;;12.63;7.27;;;9.30;99.90;;;-141.84;93.56;17235.63;5092994;28;20644;-61
2022/10/19 05:44:04;;;;;;;10.07;7.00;;;9.40;99.90;;;-141.84;93.00;17251.88;5093695;28;20220;-61
2022/10/19 05:46:33;;;;;;;14.77;7.20;;;9.40;99.90;;;-141.84;91.84;17197.03;5092837;28;20248;-59
2022/10/19 05:49:02;;;;;;;10.40;7.07;;;9.40;99.90;;;-141.84;92.24;17225.47;5092801;28;20262;-59
2022/10/19 05:51:30;;;;;;;13.10;6.73;;;9.40;99.90;;;-141.84;91.92;17260.00;5092764;28;20227;-61
2022/10/19 05:53:58;;;;;;;11.77;6.90;;;9.50;99.90;;;-141.84;92.23;17253.91;5092833;28;20269;-60
2022/10/19 05:56:30;;;;;;;12.93;7.60;;;9.50;99.90;;;-141.84;92.73;17249.84;5092660;28;20695;-62
2022/10/19 05:59:00;;;;;;;10.20;7.20;;;9.50;99.90;;;-141.84;93.08;17257.97;5093085;28;20208;-61
2022/10/19 06:01:30;;;;;;;11.80;7.60;;;9.60;99.90;;;-141.84;92.22;17249.84;5092621;28;20562;-60
2022/10/19 06:04:00;;;;;;;15.80;7.87;;;9.60;99.90;;;-141.84;91.85;17241.72;5092861;28;20285;-58
2022/10/19 06:06:30;;;;;;;16.03;7.67;;;9.60;99.90;;;-141.84;90.21;17274.22;5092754;28;20235;-59
2022/10/19 06:08:58;;;;;;;13.20;7.40;;;9.60;99.90;;;-141.84;89.32;17282.34;5092885;28;20227;-59
2022/10/19 06:11:32;;;;;;;11.10;7.13;;;9.60;99.90;;;-141.84;89.40;17288.44;5092966;28;20207;-61
2022/10/19 06:14:04;;;;;;;10.73;6.70;;;9.60;99.90;;;-141.84;90.24;17257.97;5092877;28;20188;-59
2022/10/19 06:16:33;;;;;;;14.80;7.77;;;9.70;99.90;;;-141.84;91.14;17284.38;5092449;28;20701;-59
2022/10/19 06:19:01;;;;;;;12.13;7.03;;;9.70;99.90;;;-141.84;90.78;17272.19;5092302;28;20231;-60
2022/10/19 06:21:32;;;;;;;15.70;7.17;;;9.70;99.90;;;-141.84;91.05;17302.66;5092328;28;20223;-60
2022/10/19 06:24:02;;;;;;;17.17;7.90;;;9.70;99.90;;;-141.84;91.19;17312.81;5092262;28;20223;-60
2022/10/19 06:26:34;;;;;;;14.87;6.93;;;9.80;99.90;;;-141.84;90.98;17304.69;5092191;28;20215;-59
2022/10/19 06:29:04;;;;;;;12.80;6.60;;;9.90;99.90;;;-141.84;90.03;17322.97;5091858;28;20181;-61
2022/10/19 06:31:35;;;;;;;10.30;6.80;;;9.90;99.90;;;-141.84;89.50;17306.72;5092161;28;20231;-61
2022/10/19 06:34:04;;;;;;;12.67;7.37;;;10.00;99.90;;;-141.84;89.48;17300.63;5091999;28;20232;-60
2022/10/19 06:36:33;;;;;;;11.50;7.07;;;10.00;99.90;;;-141.84;89.11;17314.84;5091950;28;20227;-59
2022/10/19 06:39:01;;;;;;;10.23;6.80;;;10.00;99.90;;;-141.84;88.26;17318.91;5091946;28;20232;-59
2022/10/19 06:41:33;;;;;;;10.63;7.17;;;10.10;99.90;;;-141.84;88.06;17355.47;5092089;28;20193;-60
2022/10/19 06:44:01;;;;;;;9.50;6.23;;;10.20;99.90;;;-141.84;87.72;17318.91;5092768;28;20191;-60
2022/10/19 06:46:31;;;;;;;9.50;6.63;;;10.20;99.90;;;-141.84;88.20;17331.09;5092003;28;20228;-60
2022/10/19 06:49:01;;;;;;;15.80;6.90;;;10.20;99.90;;;-141.84;87.83;17379.84;5091642;28;20269;-61
2022/10/19 06:51:32;;;;;;;10.57;6.87;;;10.30;99.90;;;-141.84;88.04;17387.97;5091816;28;20235;-60
2022/10/19 06:54:01;;;;;;;11.60;6.73;;;10.30;99.90;;;-141.84;88.08;17355.47;5091429;28;20223;-60
2022/10/19 06:56:29;;;;;;;12.23;7.10;;;10.40;99.90;;;-141.84;88.58;17390.00;5091735;28;20208;-59
2022/10/19 06:58:59;;;;;;;12.83;7.40;;;10.40;99.90;;;-141.84;86.75;17387.97;5091849;28;20234;-58
2022/10/19 07:01:27;;;;;;;12.77;6.93;;;10.60;99.90;;;-141.84;85.88;17396.09;5091240;28;20604;-62
2022/10/19 07:03:55;;;;;;;12.67;6.60;;;10.50;99.90;;;-141.84;85.36;17404.22;5091135;28;20674;-60
2022/10/19 07:06:23;;;;;;;10.80;6.50;;;10.50;99.90;;;-141.84;86.83;17410.31;5091362;28;20224;-59
2022/10/19 07:08:52;;;;;;;10.70;6.43;;;10.50;99.90;;;-141.84;88.11;17428.59;5091471;28;20220;-60
2022/10/19 07:11:22;;;;;;;11.53;6.53;;;10.60;99.90;;;-141.84;88.43;17428.59;5091935;28;20200;-61
2022/10/19 07:13:52;;;;;;;14.07;6.77;;;10.60;99.90;;;-141.84;89.61;17408.28;5091510;28;20216;-59
2022/10/19 07:16:22;;;;;;;9.97;6.27;;;10.70;99.90;;;-141.84;88.96;17406.25;5091245;28;20745;-61
2022/10/19 07:18:52;;;;;;;12.27;6.33;;;10.70;99.90;;;-141.84;88.72;17442.81;5091017;28;20220;-61
2022/10/19 07:21:23;;;;;;;12.83;6.70;;;10.70;99.90;;;-141.84;89.16;17414.38;5091068;28;20231;-60
2022/10/19 07:23:52;;;;;;;13.17;6.40;;;10.80;99.90;;;-141.84;89.36;17428.59;5090886;28;20223;-59
2022/10/19 07:26:25;;;;;;;11.20;6.77;;;10.90;99.90;;;-141.84;90.02;17442.81;5091387;28;20548;-61
2022/10/19 07:28:56;;;;;;;11.37;6.33;;;11.00;99.90;;;-141.84;91.37;17420.47;5091173;28;20688;-60
2022/10/19 07:31:27;;;;;;;11.83;6.80;;;10.90;99.90;;;-141.84;89.95;17426.56;5090867;28;20242;-61
2022/10/19 07:33:59;;;;;;;12.77;6.87;;;11.00;99.90;;;-141.84;89.26;17416.41;5090782;28;20228;-60
2022/10/19 07:36:29;;;;;;;12.55;6.95;;;11.10;99.90;;;-141.84;87.64;17448.91;5090653;28;20227;-60
2022/10/19 07:38:57;;;;;;;9.23;6.73;;;11.20;99.90;;;-141.84;87.88;17457.03;5090657;28;20236;-60
2022/10/19 07:41:26;;;;;;;10.87;6.00;;;11.20;99.90;;;-141.84;86.07;17483.41;5090537;28;20206;-60
2022/10/19 07:43:56;;;;;;;11.90;6.40;;;11.30;99.90;;;-141.84;86.21;17511.84;5091224;28;20207;-59
2022/10/19 07:46:32;;;;;;;12.03;6.07;;;11.40;99.90;;;-141.84;84.75;17493.56;5090638;28;20224;-61
2022/10/19 07:49:00;;;;;;;7.68;5.78;;;11.40;99.90;;;-141.84;85.63;17534.19;5090485;28;20559;-60
2022/10/19 07:51:28;;;;;;;9.83;6.73;;;11.40;99.90;;;-141.84;86.54;17532.16;5090483;28;20234;-60
2022/10/19 07:53:58;;;;;;;9.60;5.78;;;11.50;99.90;;;-141.84;85.10;17554.50;5090553;28;20293;-60
2022/10/19 07:56:28;;;;;;;10.87;6.50;;;11.60;99.90;;;-141.84;84.84;17568.72;5090729;28;20196;-61
2022/10/19 07:58:58;;;;;;;10.30;5.50;;;11.70;99.90;;;-141.84;86.10;17570.75;5091062;28;20226;-60
2022/10/19 08:01:31;;;;;;;8.97;5.23;;;11.70;99.90;;;-141.84;87.21;17607.31;5090753;28;20769;-60
2022/10/19 08:04:00;;;;;;;10.07;5.47;;;11.70;99.90;;;-141.84;85.69;17574.81;5090599;28;20236;-60
2022/10/19 08:06:49;;;;;;;9.30;5.38;;;11.70;99.90;;;-141.84;83.25;17582.94;5090591;28;20253;-62
2022/10/19 08:09:17;;;;;;;8.30;5.30;;;11.70;99.90;;;-141.84;81.95;17615.44;5090586;28;20247;-61
2022/10/19 08:12:06;;;;;;;11.15;5.70;;;11.70;99.90;;;-141.84;83.80;17611.38;5090759;28;20250;-60
2022/10/19 08:14:38;;;;;;;8.43;5.70;;;11.80;99.90;;;-141.84;81.98;17647.94;5090161;28;20575;-60
2022/10/19 08:17:10;;;;;;;9.63;5.80;;;11.90;99.90;;;-141.84;82.26;17649.97;5091352;28;20207;-60
2022/10/19 08:19:41;;;;;;;8.45;5.32;;;11.90;99.90;;;-141.84;83.04;17647.94;5090039;28;20235;-60
2022/10/19 08:22:10;;;;;;;8.10;4.65;;;11.90;99.90;;;-141.84;82.72;17662.16;5090465;28;20220;-60
2022/10/19 08:24:38;;;;;;;9.75;4.93;;;12.00;99.90;;;-141.84;82.39;17694.66;5089934;28;20224;-60
2022/10/19 08:27:06;;;;;;;12.10;5.68;;;12.00;99.90;;;-141.84;83.15;17704.81;5090427;28;20230;-59
2022/10/19 08:29:34;;;;;;;6.85;4.90;;;12.00;99.90;;;-141.84;84.42;17662.16;5090031;28;20192;-60
2022/10/19 08:32:02;;;;;;;9.45;5.25;;;12.10;99.90;;;-141.84;82.44;17649.97;5090936;28;20257;-61
2022/10/19 08:34:32;;;;;;;8.10;5.28;;;12.20;99.90;;;-141.84;82.66;17723.09;5090059;28;20250;-60
2022/10/19 08:37:01;;;;;;;6.90;4.88;;;12.30;99.90;;;-141.84;81.59;17745.44;5090370;28;20666;-63
2022/10/19 08:39:46;;;;;;;8.35;4.45;;;12.30;99.90;;;-141.84;79.58;17779.97;5090087;28;20231;-60
2022/10/19 08:42:21;;;;;;;9.77;4.50;;;12.30;99.90;;;-141.84;77.84;17814.50;5090379;28;20220;-60
2022/10/19 08:45:22;;;;;;;9.95;4.32;;;12.40;99.90;;;-141.84;76.49;17901.84;5090136;28;20582;-61
2022/10/19 08:48:12;;;;;;;5.97;4.18;;;12.40;99.90;;;-141.84;77.66;17877.47;5090251;28;20227;-60
2022/10/19 08:50:46;;;;;;;7.63;4.05;;;12.60;99.90;;;-141.84;74.69;17926.25;5090424;28;20188;-59
2022/10/19 08:53:22;;;;;;;6.60;4.07;;;12.60;99.90;;;-141.84;74.29;18013.59;5092498;28;20647;-61
2022/10/19 08:56:09;;;;;;;6.47;3.58;;;12.70;99.90;;;-141.84;74.06;18058.28;5094140;28;20219;-61
2022/10/19 08:59:02;;;;;;;6.30;3.20;;;12.80;99.90;;;-141.84;69.43;18261.44;5093679;28;20226;-61
2022/10/19 09:01:40;;;;;;;5.82;3.50;;;12.90;99.90;;;-141.84;71.68;18257.38;5093817;28;20227;-60
2022/10/19 09:04:19;;;;;;;5.47;3.45;;;13.00;99.90;;;-141.84;71.76;18218.75;5093955;28;20772;-64
2022/10/19 09:07:09;;;;;;;6.60;3.42;;;13.10;99.90;;;-141.84;69.96;18363.00;5093686;28;20297;-60
2022/10/19 09:09:46;;;;;;;3.70;3.10;;;13.20;99.90;;;-141.84;71.74;18269.56;5093777;28;20561;-59
2022/10/19 09:12:20;;;;;;;6.63;3.00;;;13.30;99.90;;;-141.84;73.36;18251.28;5093640;28;20230;-60
2022/10/19 09:15:00;;;;;;;4.82;3.05;;;13.40;99.90;;;-141.84;70.78;18346.75;5093304;28;20226;-60
2022/10/19 09:17:32;;;;;;;6.60;3.25;;;13.50;99.90;;;-141.84;69.45;18440.22;5093492;28;20195;-59
2022/10/19 09:20:16;;;;;;;5.93;3.40;;;13.60;99.90;;;-141.84;68.74;18493.03;5093794;28;20583;-60
2022/10/19 09:22:56;;;;;;;5.22;2.90;;;13.70;99.90;;;-141.84;68.21;18574.28;5093266;28;20219;-61
2022/10/19 09:25:28;;;;;;;7.55;3.08;;;13.90;99.90;;;-141.84;65.51;18879.06;5110679;28;20246;-61
2022/10/19 09:28:14;;;;;;;4.93;2.70;;;13.90;99.90;;;-141.84;64.38;19116.81;5113543;28;20223;-61
2022/10/19 09:30:46;;;;;;;4.38;2.60;;;13.90;99.90;;;-141.84;64.41;19124.94;5113332;28;20737;-61
2022/10/19 09:33:23;;;;;;;3.92;2.20;;;14.10;99.90;;;-141.84;65.36;19039.59;5113616;28;20226;-60
2022/10/19 09:35:53;;;;;;;3.67;2.10;;;14.10;99.90;;;-141.84;63.60;19206.22;5113428;28;20222;-60
2022/10/19 09:38:28;;;;;;;3.63;2.38;;;14.30;99.90;;;-141.84;62.75;19374.88;5113608;28;20183;-62
2022/10/19 09:40:58;;;;;;;4.53;2.33;;;14.30;99.90;;;-141.84;61.53;19543.53;5113672;28;20209;-60
2022/10/19 09:43:27;;;;;;;3.30;2.38;;;14.40;99.90;;;-141.84;60.34;19655.31;5113370;27;20223;-59
2022/10/19 09:46:04;;;;;;;3.45;1.70;;;14.40;99.90;;;-141.84;59.20;19777.25;5113154;28;20231;-60
2022/10/19 09:48:50;;;;;;;3.13;1.55;;;14.40;99.90;;;-141.84;60.59;19700.03;5113329;28;20228;-59
2022/10/19 09:51:20;;;;;;;5.07;1.73;;;14.30;99.90;;;-141.84;60.36;19691.91;5113105;28;20637;-62
2022/10/19 09:53:53;;;;;;;5.72;2.15;;;14.20;99.90;;;-141.84;59.50;19761.00;5109190;28;20310;-59
2022/10/19 09:56:24;;;;;;;4.80;1.95;;;14.20;99.90;;;-141.84;59.46;19824.00;5092681;28;20191;-60
2022/10/19 09:58:56;;;;;;;4.60;1.92;;;14.30;99.90;;;-141.84;60.77;19695.97;5093097;28;20267;-60
2022/10/19 10:01:34;;;;;;;4.43;2.17;;;14.30;99.90;;;-141.84;60.10;19748.81;5092567;28;20735;-60
2022/10/19 10:04:14;;;;;;;4.75;2.30;;;14.20;99.90;;;-141.84;58.46;19891.06;5091550;28;20488;-61
2022/10/19 10:06:47;;;;;;;4.72;2.10;;;14.30;99.90;;;-141.84;59.90;19897.16;5092404;28;20231;-60
2022/10/19 10:09:19;;;;;;;5.10;1.98;;;14.20;99.90;;;-141.84;60.42;19791.47;5092796;28;20224;-60
2022/10/19 10:11:50;;;;;;;3.75;1.92;;;14.30;99.90;;;-141.84;59.51;19878.88;5092382;28;20220;-59
2022/10/19 10:14:23;;;;;;;3.80;2.08;;;14.30;99.90;;;-141.84;60.29;19809.78;5092919;28;20188;-61
2022/10/19 10:16:56;;;;;;;5.22;1.88;;;14.20;99.90;;;-141.84;60.04;19813.84;5092678;28;20707;-61
2022/10/19 10:19:29;;;;;;;3.58;1.92;;;14.20;99.90;;;-141.84;60.92;19801.66;5092138;28;20231;-59
2022/10/19 10:21:59;;;;;;;3.65;2.05;;;14.20;99.90;;;-141.84;61.38;19689.88;5092153;28;20635;-61
2022/10/19 10:24:31;;;;;;;2.80;1.73;;;14.20;99.90;;;-141.84;61.77;19677.66;5092055;28;20228;-60